Station info - map view · info · telemetry · weather · raw · status · beacons · messages · bulletins · browse · moving · my account
Callsign, ship name or locator: Clear       
It is possible to search using wildcards (*?) after a prefix. Example: OH*
APRS station KC0CNT-9 - show graphs
Map loading...
Mic-E message: In service
Location: 32°18.42' N 110°59.91' W - locator DM42MH03EQ - show map - static map
1.1 miles Northeast bearing 36° from Flowing Wells, Pima County, Arizona, United States [?]
1.2 miles South bearing 190° from Casas Adobes, Pima County, Arizona, United States
7.2 miles Northwest bearing 324° from Tucson, Pima County, Arizona, United States
84.6 miles Southeast bearing 144° from Chandler, Maricopa County, Arizona, United States
Last position: 2019-09-11 21:40:26 EDT (4d 23h4m ago)
2019-09-11 18:40:26 MST local time at Flowing Wells, United States [?]
Altitude: 2146 ft
Course: 25°
Speed: 6 MPH
Last telemetry: 2016-05-12 00:11:42 EDT (1222d 20h33m ago) – show telemetry
Ch 1: 412, Ch 2: 605, Ch 3: 0, Ch 4: 0, Ch 5: 0
 1     2     3     4     5     6     7     8 
Device: Kenwood: TM-D700 (rig)
Last path: KC0CNT-9>S2QXTR via N7HND*,WIDE2-1,qAO,WB7QMR-10 (good)
Positions stored: 51229
Packet rate: 82 seconds between packets on average during 4005 seconds.
Other SSIDs: KC0CNT-8
Stations near current position of KC0CNT-9 - show more
callsign distance last heard - EDT      callsign distance last heard - EDT
KC0CNT-860.8 yards 0°2019-09-13 16:12:03 FW37060.9 miles 114°2019-09-16 20:30:09
KG7TPE1.4 miles 256°2019-08-29 18:51:37 KB7AZ-N1.7 miles 17°2019-09-16 20:41:45
KB7AZ1.8 miles 15°2019-08-29 11:51:14 N7BAZ-51.9 miles 148°2019-09-14 20:48:19
K9UL-92.0 miles 225°2019-09-13 20:22:11 N7MXO-32.1 miles 7°2019-09-07 16:12:32
KC6WFU-72.1 miles 87°2019-09-13 21:31:22 KC6WFU-142.1 miles 85°2019-09-15 15:26:50
W7HD2.5 miles 197°2019-08-30 10:08:22 EW18542.6 miles 90°2019-09-16 20:45:06
W7BV2.8 miles 81°2019-09-02 18:54:54 KK1J-72.9 miles 330°2019-09-14 22:54:28
KB7YYZ3.5 miles 351°2019-09-16 20:40:25 EW94563.6 miles 14°2019-09-14 00:12:32
DW72693.9 miles 36°2019-09-16 20:32:53 K7AEL4.0 miles 324°2019-08-27 18:24:39
K7AEL B4.0 miles 325°2019-09-16 20:28:10 K7AEL-B4.0 miles 325°2019-09-16 20:28:20
Stations which heard KC0CNT-9 directly on radio –
callsign pkts first heard - EDT last heard longest (tx => rx) longest at - EDT
SAMTNM 1 2019-09-11 11:04:43 2019-09-11 11:04:43 DM76RM > DM66XU 84.0 miles 287° 2019-09-11 11:04:43
SANDIA 69 2019-09-11 13:28:51 2019-09-11 16:18:31 DM63NV > DM65SF 95.5 miles 15° 2019-09-11 16:18:31
HELIO 1 2019-09-11 20:32:40 2019-09-11 20:32:40 DM42XD > DM52BP 37.0 miles 15° 2019-09-11 20:32:40
LAMOSC 3 2019-09-11 13:40:15 2019-09-11 13:47:30 DM65XN > DM65EG 88.6 miles 256° 2019-09-11 13:40:15
CAPILA 11 2019-09-11 12:56:54 2019-09-11 16:21:38 DM75HJ > DM64TQ 75.5 miles 231° 2019-09-11 12:56:54
TESQUE 3 2019-09-11 13:12:16 2019-09-11 13:15:21 DM75EL > DM75CS 23.3 miles 341° 2019-09-11 13:12:16
TAPIA 4 2019-09-11 12:49:43 2019-09-11 14:01:05 DM65SJ > DM75EC 51.1 miles 112° 2019-09-11 14:01:05
CABALL 72 2019-09-11 16:23:45 2019-09-11 18:11:32 DM63MT > DM62JX 59.4 miles 195° 2019-09-11 16:23:45
ELKMTN 67 2019-09-11 10:46:14 2019-09-11 13:44:26 DM76ST > DM75FS 95.8 miles 221° 2019-09-11 10:46:14
MMTN 22 2019-09-11 15:41:25 2019-09-11 16:50:32 DM63IJ > DM64MB 49.8 miles 20° 2019-09-11 16:50:32
JACKPK 20 2019-09-11 18:13:36 2019-09-11 20:09:51 DM52EI > DM52SN 71.7 miles 77° 2019-09-11 20:09:51
ALMGRE 21 2019-09-11 07:31:21 2019-09-11 09:10:45 DM77OW > DM78MS 58.4 miles 350° 2019-09-11 09:10:45
N7HND 4 2019-09-11 21:26:45 2019-09-11 21:40:26 DM42MH > DM42NF 8.9 miles 131° 2019-09-11 21:40:26
K7LHR-10 1 2019-09-11 21:39:22 2019-09-11 21:39:22 DM42MH > DM41PX 27.6 miles 144° 2019-09-11 21:39:22
KD0SFY 23 2019-09-11 07:53:13 2019-09-11 08:27:40 DM78QM > DM78OV 27.1 miles 341° 2019-09-11 08:27:40
K0XK-5 1 2019-09-11 06:52:47 2019-09-11 06:52:47 DM79KQ > DM79OO 16.5 miles 108° 2019-09-11 06:52:47
N4YRE 2 2019-09-11 07:00:16 2019-09-11 07:09:33 DM79JP > DM79NQ 17.1 miles 85° 2019-09-11 07:00:16
KM5VY-12 10 2019-09-11 14:08:19 2019-09-11 15:11:33 DM65RH > DM65QB 18.3 miles 187° 2019-09-11 14:12:25
W0ARP 1 2019-09-11 07:07:30 2019-09-11 07:07:30 DM79KN > DM79QL 26.2 miles 101° 2019-09-11 07:07:30
WD8AJJ 1 2019-09-11 17:39:45 2019-09-11 17:39:45 DM62JP > DM62PI 33.2 miles 124° 2019-09-11 17:39:45
K0NTS-5 2 2019-09-11 07:12:44 2019-09-11 07:21:00 DM79ML > DM79GR 29.8 miles 306° 2019-09-11 07:21:00
W0ARP-3 13 2019-09-11 06:53:48 2019-09-11 07:44:53 DM79JP > DM79QL 30.8 miles 111° 2019-09-11 07:01:18
KE7JVX-3 11 2019-09-11 20:17:02 2019-09-11 21:35:09 DM41UX > DM43OG 95.4 miles 341° 2019-09-11 20:49:24
N0AUX-1 7 2019-09-11 07:14:52 2019-09-11 07:28:16 DM79LM > DM79KG 19.4 miles 192° 2019-09-11 07:14:52
N6BA-10 12 2019-09-11 07:19:58 2019-09-11 07:45:55 DM79ML > DM79OI 13.6 miles 130° 2019-09-11 07:19:58
WA0GEH-10 5 2019-09-11 06:51:45 2019-09-11 07:13:45 DM79KQ > DM79MM 13.0 miles 144° 2019-09-11 06:51:45
KB9UZO-1 1 2019-09-11 07:56:31 2019-09-11 07:56:31 DM79OA > DM78QW 11.9 miles 114° 2019-09-11 07:56:31
WB7QMR-10 6 2019-09-11 21:13:48 2019-09-11 21:20:12 DM42OB > DM42NC 4.0 miles 299° 2019-09-11 21:13:48
K0BV-3 14 2019-09-11 09:48:46 2019-09-11 10:49:18 DM77QJ > DM76RX 29.3 miles 170° 2019-09-11 09:48:46
HUGOCO-10 2 2019-09-11 07:54:14 2019-09-11 07:59:34 DM79NB > DM89GB 73.2 miles 89° 2019-09-11 07:54:14
K7TUS 9 2019-09-11 21:09:27 2019-09-11 21:33:06 DM42PA > DM42OK 29.9 miles 351° 2019-09-11 21:09:27
PVLY 1 2019-09-11 07:41:44 2019-09-11 07:41:44 DM79NF > DM79RE 19.6 miles 101° 2019-09-11 07:41:44
K5LRY-10 7 2019-09-11 14:49:49 2019-09-11 15:04:15 DM65QA > DM65PF 13.4 miles 351° 2019-09-11 15:04:15

Only position packets which were originated by the station are shown here. The range statistics show some extra long hops, because some digipeaters do not correctly add themselves to the digipeater path. Please check the raw packets.
About this site
This page shows real-time information collected from the Automatic Position Reporting System Internet network (APRS-IS). APRS is used by amateur (ham) radio operators to transmit real-time position information, weather data, telemetry and messages over the radio. A vehicle equipped with a GPS receiver, a VHF transmitter or HF transceiver and a small computer device called a tracker transmits it's location, speed and course in a small data packet, which is then received by a nearby iGate receiving site which forwards the packet on the Internet. Systems connected to the Internet can send information on the APRS-IS without a radio transmitter, or collect and display information transmitted anywhere in the world.
User guide · FAQ · Blog · Discussion group · Linking to aprs.fi · AIS sites · Service status · Database statistics · Advertising on aprs.fi · Technical details · API · Change log · Planned changes · Credits and thanks · Terms Of Service · iPhone/iPad APRS